Captain Koulis — SV5456 — position and weather

sailwx.info

Track history (hours):
 
Tides and Currents Weather Stations Pressure Air Temp Water Temp Dewpoint Dewpoint Depression Visibility Wind Speed Wind Dir Waves Ship Positions

Captain Koulis

Last reported at 2014-Sep-14 16:33 UTC. Time now 2014-Sep-15 02:02 UTC.
Position N 36°27' E 025°23'.

Length 21 m.

Type: Passenger vessel. MMSI: 239173800.

Date/timePositionNaut miles runAvg speedWind from/ knotsBaromVisibWave heightAir tempDewpointWater temp
2014-Sep-14 16:33N 36°27' E 025°23'1313.1
2014-Sep-14 15:33N 36°39' E 025°17'4 0.7
2014-Sep-14 09:30N 36°43' E 025°16'0 0.0
2014-Sep-14 08:33N 36°43' E 025°16'1413.7
2014-Sep-14 07:33N 36°30' E 025°21'8 8.0
2014-Sep-14 06:34N 36°23' E 025°26'2 1.7
2014-Sep-14 05:33N 36°25' E 025°25'1 0.0
2014-Sep-13 06:33N 36°24' E 025°25'1 1.0
2014-Sep-13 05:32N 36°25' E 025°25'0 0.4
2014-Sep-13 04:21N 36°25' E 025°25'2 0.1
2014-Sep-12 06:33N 36°23' E 025°26'2 1.8
2014-Sep-12 05:31N 36°25' E 025°25'2 1.7
2014-Sep-12 04:33N 36°23' E 025°26'1 0.1
2014-Sep-11 17:16N 36°24' E 025°25'1 2.0
2014-Sep-11 16:32N 36°23' E 025°26'1 0.5
2014-Sep-11 14:33N 36°24' E 025°25'1 0.6
2014-Sep-11 13:34N 36°23' E 025°25'0 0.2
2014-Sep-11 12:33N 36°24' E 025°25'1 0.3
2014-Sep-11 07:21N 36°25' E 025°25'0 0.3
2014-Sep-11 06:15N 36°25' E 025°25'0 0.6
2014-Sep-11 05:33N 36°25' E 025°25'1 1.4
2014-Sep-11 04:33N 36°24' E 025°25'1 0.0
2014-Sep-10 04:34N 36°25' E 025°25'1 0.0
2014-Sep-09 12:04N 36°24' E 025°24'1 1.9
2014-Sep-09 11:29N 36°25' E 025°25'0 0.2
2014-Sep-09 10:33N 36°25' E 025°25'1 1.0
2014-Sep-09 09:33N 36°24' E 025°24'1 0.0
2014-Sep-08 04:17N 36°25' E 025°25'0 0.0
2014-Sep-07 05:33N 36°25' E 025°25'0 0.1
2014-Sep-07 04:25N 36°25' E 025°25'1 0.1
2014-Sep-06 16:19N 36°24' E 025°25'1012.6
2014-Sep-06 15:33N 36°34' E 025°25'2120.7
2014-Sep-06 14:34N 36°52' E 025°35'3 3.3
2014-Sep-06 13:33N 36°56' E 025°36'0 0.0
2014-Sep-06 12:33N 36°56' E 025°36'2 2.4
2014-Sep-06 11:33N 36°54' E 025°34'1111.2
2014-Sep-06 10:33N 36°43' E 025°29'1919.1
2014-Sep-06 09:33N 36°24' E 025°25'1 1.4
2014-Sep-06 08:33N 36°23' E 025°26'1 0.7
2014-Sep-06 06:26N 36°24' E 025°24'1 1.6
2014-Sep-06 05:33N 36°23' E 025°26'2 0.2
2014-Sep-05 17:32N 36°25' E 025°26'0 0.0
2014-Sep-05 14:09N 36°25' E 025°26'1 0.1
2014-Sep-05 06:34N 36°24' E 025°25'1 0.5
2014-Sep-05 05:33N 36°24' E 025°25'1 0.7
2014-Sep-05 04:28N 36°25' E 025°25'  
Track history (hours):
 
Tides and Currents Weather Stations Pressure Air Temp Water Temp Dewpoint Dewpoint Depression Visibility Wind Speed Wind Dir Waves Ship Positions

Captain Koulis

Last reported at 2014-Sep-14 16:33 UTC. Time now 2014-Sep-15 02:02 UTC.
Position N 36°27' E 025°23'.

Length 21 m.

Type: Passenger vessel. MMSI: 239173800.

Date/timePositionNaut miles runAvg speedWind from/ knotsBaromVisibWave heightAir tempDewpointWater temp
2014-Sep-14 16:33N 36°27' E 025°23'1313.1
2014-Sep-14 15:33N 36°39' E 025°17'4 0.7
2014-Sep-14 09:30N 36°43' E 025°16'0 0.0
2014-Sep-14 08:33N 36°43' E 025°16'1413.7
2014-Sep-14 07:33N 36°30' E 025°21'8 8.0
2014-Sep-14 06:34N 36°23' E 025°26'2 1.7
2014-Sep-14 05:33N 36°25' E 025°25'1 0.0
2014-Sep-13 06:33N 36°24' E 025°25'1 1.0
2014-Sep-13 05:32N 36°25' E 025°25'0 0.4
2014-Sep-13 04:21N 36°25' E 025°25'2 0.1
2014-Sep-12 06:33N 36°23' E 025°26'2 1.8
2014-Sep-12 05:31N 36°25' E 025°25'2 1.7
2014-Sep-12 04:33N 36°23' E 025°26'1 0.1
2014-Sep-11 17:16N 36°24' E 025°25'1 2.0
2014-Sep-11 16:32N 36°23' E 025°26'1 0.5
2014-Sep-11 14:33N 36°24' E 025°25'1 0.6
2014-Sep-11 13:34N 36°23' E 025°25'0 0.2
2014-Sep-11 12:33N 36°24' E 025°25'1 0.3
2014-Sep-11 07:21N 36°25' E 025°25'0 0.3
2014-Sep-11 06:15N 36°25' E 025°25'0 0.6
2014-Sep-11 05:33N 36°25' E 025°25'1 1.4
2014-Sep-11 04:33N 36°24' E 025°25'1 0.0
2014-Sep-10 04:34N 36°25' E 025°25'1 0.0
2014-Sep-09 12:04N 36°24' E 025°24'1 1.9
2014-Sep-09 11:29N 36°25' E 025°25'0 0.2
2014-Sep-09 10:33N 36°25' E 025°25'1 1.0
2014-Sep-09 09:33N 36°24' E 025°24'1 0.0
2014-Sep-08 04:17N 36°25' E 025°25'0 0.0
2014-Sep-07 05:33N 36°25' E 025°25'0 0.1
2014-Sep-07 04:25N 36°25' E 025°25'1 0.1
2014-Sep-06 16:19N 36°24' E 025°25'1012.6
2014-Sep-06 15:33N 36°34' E 025°25'2120.7
2014-Sep-06 14:34N 36°52' E 025°35'3 3.3
2014-Sep-06 13:33N 36°56' E 025°36'0 0.0
2014-Sep-06 12:33N 36°56' E 025°36'2 2.4
2014-Sep-06 11:33N 36°54' E 025°34'1111.2
2014-Sep-06 10:33N 36°43' E 025°29'1919.1
2014-Sep-06 09:33N 36°24' E 025°25'1 1.4
2014-Sep-06 08:33N 36°23' E 025°26'1 0.7
2014-Sep-06 06:26N 36°24' E 025°24'1 1.6
2014-Sep-06 05:33N 36°23' E 025°26'2 0.2
2014-Sep-05 17:32N 36°25' E 025°26'0 0.0
2014-Sep-05 14:09N 36°25' E 025°26'1 0.1
2014-Sep-05 06:34N 36°24' E 025°25'1 0.5
2014-Sep-05 05:33N 36°24' E 025°25'1 0.7
2014-Sep-05 04:28N 36°25' E 025°25'  

Dump ship's entire track history